createdAt,value
2022-12-18T00:05:00.143Z,8.10
2022-12-18T00:10:04.473Z,7.40
2022-12-18T00:15:08.407Z,7.00
2022-12-18T00:20:12.937Z,6.90
2022-12-18T00:25:16.350Z,6.10
2022-12-18T00:30:19.974Z,9.10
2022-12-18T00:35:23.380Z,10.90
2022-12-18T00:40:26.796Z,10.90
2022-12-18T00:45:32.209Z,12.50
2022-12-18T00:50:35.568Z,12.60
2022-12-18T00:55:41.136Z,11.60
2022-12-18T01:00:44.812Z,9.30
2022-12-18T01:05:48.275Z,14.50
2022-12-18T01:10:52.189Z,22.00
2022-12-18T01:15:55.708Z,14.10
2022-12-18T01:21:00.039Z,13.20
2022-12-18T01:26:12.064Z,12.40
2022-12-18T01:31:23.358Z,11.90
2022-12-18T01:36:29.894Z,13.50
2022-12-18T01:41:53.934Z,10.30
2022-12-18T01:46:57.552Z,12.90
2022-12-18T01:52:00.969Z,15.10
2022-12-18T01:57:04.891Z,21.40
2022-12-18T02:02:10.062Z,15.20
2022-12-18T02:07:25.437Z,17.00
2022-12-18T02:13:04.485Z,12.70
2022-12-18T02:18:22.028Z,25.70
2022-12-18T02:23:53.398Z,8.20
2022-12-18T02:29:11.068Z,8.90
2022-12-18T02:34:16.160Z,11.30
2022-12-18T02:39:22.464Z,10.30
2022-12-18T02:44:25.791Z,11.00
2022-12-18T02:49:47.538Z,11.30
2022-12-18T02:55:09.684Z,8.90
2022-12-18T03:00:21.879Z,10.00
2022-12-18T03:05:44.369Z,8.60
2022-12-18T03:10:59.144Z,10.10
2022-12-18T03:16:04.355Z,8.80
2022-12-18T03:21:12.113Z,8.10
2022-12-18T03:26:20.647Z,10.20
2022-12-18T03:31:26.370Z,13.00
2022-12-18T03:36:31.163Z,16.00
2022-12-18T03:41:45.122Z,10.50
2022-12-18T03:46:58.056Z,8.60
2022-12-18T03:52:07.613Z,12.00
2022-12-18T03:57:15.941Z,13.00
2022-12-18T04:02:20.169Z,12.80
2022-12-18T04:07:24.713Z,13.00
2022-12-18T04:12:30.789Z,14.50
2022-12-18T04:17:34.099Z,11.80
2022-12-18T04:22:37.511Z,10.50
2022-12-18T04:27:40.926Z,13.00
2022-12-18T04:32:49.033Z,19.80
2022-12-18T04:37:55.331Z,12.90
2022-12-18T04:42:58.816Z,13.40
2022-12-18T04:48:03.693Z,20.40
2022-12-18T04:53:07.116Z,20.10
2022-12-18T04:58:10.559Z,19.70
2022-12-18T05:03:14.001Z,27.60
2022-12-18T05:08:17.449Z,26.80
2022-12-18T05:13:20.970Z,29.90
2022-12-18T05:18:25.704Z,24.20
2022-12-18T05:23:29.661Z,23.70
2022-12-18T05:28:35.295Z,27.60
2022-12-18T05:33:38.928Z,27.80
2022-12-18T05:38:43.149Z,28.40
2022-12-18T05:43:46.457Z,29.90
2022-12-18T05:48:51.507Z,29.10
2022-12-18T05:53:54.818Z,26.00
2022-12-18T05:58:58.232Z,26.50
2022-12-18T06:04:01.739Z,28.10
2022-12-18T06:09:10.694Z,27.00
2022-12-18T06:14:14.206Z,27.40
2022-12-18T06:19:18.027Z,28.30
2022-12-18T06:24:21.553Z,28.10
2022-12-18T06:29:24.958Z,30.00
2022-12-18T06:34:28.367Z,24.10
2022-12-18T06:39:31.683Z,25.70
2022-12-18T06:44:35.196Z,26.50
2022-12-18T06:49:38.608Z,27.30
2022-12-18T06:54:42.022Z,25.70
2022-12-18T06:59:45.949Z,27.70
2022-12-18T07:04:51.821Z,27.00
2022-12-18T07:09:55.848Z,26.50
2022-12-18T07:14:59.799Z,26.80
2022-12-18T07:20:04.637Z,26.10
2022-12-18T07:25:08.718Z,24.70
2022-12-18T07:30:12.774Z,22.50
2022-12-18T07:35:20.800Z,19.80
2022-12-18T07:40:28.098Z,18.40
2022-12-18T07:45:32.464Z,17.20
2022-12-18T07:50:35.954Z,19.30
2022-12-18T07:56:05.312Z,21.20
2022-12-18T08:01:05.934Z,19.50
2022-12-18T08:06:11.078Z,17.70
2022-12-18T08:11:14.283Z,22.10
2022-12-18T08:16:19.050Z,20.40
2022-12-18T08:21:27.488Z,21.00
2022-12-18T08:26:32.611Z,21.20
2022-12-18T08:31:35.951Z,22.60
2022-12-18T08:36:39.434Z,21.70
2022-12-18T08:41:43.326Z,23.90
2022-12-18T08:46:47.183Z,23.90
2022-12-18T09:03:25.379Z,25.60
2022-12-18T09:08:30.478Z,21.40
2022-12-18T09:13:34.358Z,20.60
2022-12-18T09:18:38.100Z,23.50
2022-12-18T09:23:42.313Z,24.70
2022-12-18T09:28:45.728Z,24.10
2022-12-18T09:33:49.655Z,26.30
2022-12-18T09:38:54.600Z,25.30
2022-12-18T09:49:13.303Z,27.40
2022-12-18T09:54:42.933Z,26.00
2022-12-18T09:59:54.536Z,26.20
2022-12-18T10:05:08.940Z,25.60
2022-12-18T10:10:40.071Z,25.20
2022-12-18T10:16:01.695Z,25.10
2022-12-18T10:21:22.985Z,21.20
2022-12-18T10:26:26.747Z,29.20
2022-12-18T10:31:29.993Z,26.40
2022-12-18T10:36:33.258Z,26.90
2022-12-18T10:41:36.534Z,27.10
2022-12-18T10:46:40.342Z,26.40
2022-12-18T10:51:43.763Z,27.80
2022-12-18T10:56:47.242Z,27.20
2022-12-18T11:01:58.887Z,27.60
2022-12-18T11:07:08.070Z,30.80
2022-12-18T11:12:24.105Z,29.10
2022-12-18T11:17:34.724Z,24.90
2022-12-18T11:22:39.563Z,30.00
2022-12-18T11:27:53.617Z,30.80
2022-12-18T11:33:32.433Z,28.80
2022-12-18T11:38:42.473Z,30.90
2022-12-18T11:43:57.271Z,32.20
2022-12-18T11:54:16.024Z,32.40
2022-12-18T11:59:37.187Z,25.20
2022-12-18T12:04:52.316Z,33.20
2022-12-18T12:09:58.317Z,34.20
2022-12-18T12:15:23.031Z,32.10
2022-12-18T12:20:35.931Z,32.80
2022-12-18T12:25:45.281Z,31.20
2022-12-18T12:30:54.563Z,28.40
2022-12-18T12:36:17.890Z,33.70
2022-12-18T12:41:50.922Z,33.30
2022-12-18T12:46:59.545Z,30.80
2022-12-18T12:52:16.907Z,31.40
2022-12-18T12:57:36.888Z,31.60
2022-12-18T13:03:04.680Z,32.60
2022-12-18T13:08:11.197Z,33.10
2022-12-18T13:13:24.236Z,32.40
2022-12-18T13:18:28.729Z,33.40
2022-12-18T13:23:34.066Z,29.10
2022-12-18T13:28:47.028Z,33.90
2022-12-18T13:34:24.521Z,32.10
2022-12-18T13:39:30.271Z,33.10
2022-12-18T13:44:42.897Z,37.70
2022-12-18T13:49:48.104Z,36.70
2022-12-18T13:55:03.459Z,35.50
2022-12-18T14:00:30.155Z,37.00
2022-12-18T14:05:38.607Z,35.50
2022-12-18T14:10:48.355Z,36.10
2022-12-18T14:15:52.874Z,37.10
2022-12-18T14:21:00.093Z,38.30
2022-12-18T14:26:19.236Z,38.30
2022-12-18T14:31:25.343Z,36.30
2022-12-18T14:36:30.525Z,33.00
2022-12-18T14:41:34.341Z,34.30
2022-12-18T14:46:40.175Z,37.10
2022-12-18T14:51:49.956Z,34.50
2022-12-18T14:57:31.844Z,30.00
2022-12-18T15:02:37.625Z,31.90
2022-12-18T15:07:46.906Z,39.00
2022-12-18T15:13:07.210Z,34.30
2022-12-18T15:18:13.507Z,33.30
2022-12-18T15:23:28.978Z,36.10
2022-12-18T15:28:38.355Z,34.70
2022-12-18T15:34:08.589Z,33.70
2022-12-18T15:39:14.256Z,32.60
2022-12-18T15:44:24.562Z,34.70
2022-12-18T15:49:27.879Z,34.20
2022-12-18T15:54:50.384Z,34.60
2022-12-18T15:59:57.619Z,33.90
2022-12-18T16:05:01.512Z,31.20
2022-12-18T16:10:05.438Z,25.20
2022-12-18T16:15:18.499Z,32.80
2022-12-18T16:20:25.982Z,32.80
2022-12-18T16:25:30.317Z,32.20
2022-12-18T16:35:44.008Z,31.40
2022-12-18T16:41:07.591Z,33.20
2022-12-18T16:46:10.913Z,28.70
2022-12-18T16:51:14.293Z,30.00
2022-12-18T16:56:17.931Z,31.90
2022-12-18T17:01:22.062Z,25.50
2022-12-18T17:11:32.473Z,31.30
2022-12-18T17:16:36.118Z,32.50
2022-12-18T17:21:40.324Z,32.10
2022-12-18T17:31:49.270Z,26.30
2022-12-18T17:36:52.615Z,31.50
2022-12-18T17:41:57.147Z,27.90
2022-12-18T17:52:04.179Z,29.40
2022-12-18T17:57:08.505Z,26.00
2022-12-18T18:02:12.475Z,29.60
2022-12-18T18:07:16.057Z,29.40
2022-12-18T18:12:39.080Z,29.50
2022-12-18T18:17:42.953Z,24.10
2022-12-18T18:22:46.173Z,28.30
2022-12-18T18:27:50.598Z,21.50
2022-12-18T18:32:54.012Z,23.70
2022-12-18T18:37:57.834Z,26.40
2022-12-18T18:43:01.988Z,26.60
2022-12-18T18:48:07.863Z,25.20
2022-12-18T18:53:11.705Z,25.00
2022-12-18T18:58:15.380Z,22.70
2022-12-18T19:03:21.273Z,26.10
2022-12-18T19:08:31.807Z,27.00
2022-12-18T19:13:36.168Z,47.70
2022-12-18T19:18:41.009Z,74.40
2022-12-18T19:23:44.736Z,88.40
2022-12-18T19:28:48.150Z,60.70
2022-12-18T19:33:51.560Z,34.00
2022-12-18T19:38:58.098Z,28.90
2022-12-18T19:44:05.174Z,23.60
2022-12-18T19:49:16.772Z,26.70
2022-12-18T19:54:27.433Z,25.20
2022-12-18T19:59:30.950Z,28.70
2022-12-18T20:04:34.874Z,29.60
2022-12-18T20:09:38.609Z,26.70
2022-12-18T20:14:41.903Z,26.20
2022-12-18T20:19:45.418Z,24.10
2022-12-18T20:24:49.554Z,25.60
2022-12-18T20:29:53.683Z,27.70
2022-12-18T20:34:59.242Z,25.60
2022-12-18T20:40:07.063Z,28.80
2022-12-18T20:45:16.433Z,26.70
2022-12-18T20:50:20.554Z,28.30
2022-12-18T20:55:23.961Z,27.10
2022-12-18T21:00:27.368Z,28.30
2022-12-18T21:06:04.368Z,25.40
2022-12-18T21:11:38.399Z,25.50
2022-12-18T21:16:46.470Z,27.30
2022-12-18T21:21:50.855Z,26.50
2022-12-18T21:31:57.992Z,20.10
2022-12-18T21:37:02.528Z,19.60
2022-12-18T21:42:24.680Z,31.80
2022-12-18T21:47:28.402Z,27.90
2022-12-18T21:52:32.757Z,21.00
2022-12-18T21:57:37.646Z,28.00
2022-12-18T22:02:41.146Z,25.40
2022-12-18T22:07:44.754Z,31.60
2022-12-18T22:12:48.950Z,28.00
2022-12-18T22:17:52.706Z,31.50
2022-12-18T22:23:06.116Z,30.10
2022-12-18T22:28:28.890Z,30.50
2022-12-18T22:33:32.399Z,29.30
2022-12-18T22:38:35.812Z,29.50
2022-12-18T22:43:39.122Z,28.30
2022-12-18T22:48:42.741Z,27.80
2022-12-18T22:53:46.659Z,26.40
2022-12-18T22:58:52.536Z,25.80
2022-12-18T23:03:56.156Z,27.20
2022-12-18T23:08:59.571Z,27.10
2022-12-18T23:14:03.800Z,27.20
2022-12-18T23:19:07.315Z,27.90
2022-12-18T23:24:11.138Z,25.10
2022-12-18T23:29:14.656Z,25.60
2022-12-18T23:34:18.378Z,27.50
2022-12-18T23:39:29.785Z,25.60
2022-12-18T23:44:34.314Z,25.80
2022-12-18T23:49:37.523Z,26.50
2022-12-18T23:54:42.366Z,29.00
2022-12-18T23:59:45.783Z,25.70
